Terminal Aerodrome Forecast
Issued by NWS

Home | Current Version | Previous Version | Text Only | Print | Product List | Glossary On
Versions: 1 2 3 4 5 6 7 8 9 10 11 12 13 14 15 16
000
FTUS43 KDDC 231740
TAFGCK
TAF
KGCK 231740Z 2318/2418 18016G22KT P6SM SKC
     FM240400 19011KT P6SM SKC
     FM240800 22011KT P6SM SKC WS020/23045KT
     FM241200 23011KT P6SM SKC=

USA.gov is the U.S. government's official web portal to all federal, state and local government web resources and services.